sensor_id;sensor_type;location;lat;lon;timestamp;P1;durP1;ratioP1;P2;durP2;ratioP2
34896;SDS011;43407;51.828;-2.298;2022-08-19T00:01:28;1.15;;;0.80;;
34896;SDS011;43407;51.828;-2.298;2022-08-19T00:03:54;0.90;;;0.80;;
34896;SDS011;43407;51.828;-2.298;2022-08-19T00:06:21;1.90;;;1.20;;
34896;SDS011;43407;51.828;-2.298;2022-08-19T00:08:46;2.70;;;0.80;;
34896;SDS011;43407;51.828;-2.298;2022-08-19T00:11:12;2.13;;;1.00;;
34896;SDS011;43407;51.828;-2.298;2022-08-19T00:13:37;2.67;;;0.90;;
34896;SDS011;43407;51.828;-2.298;2022-08-19T00:16:04;2.63;;;1.02;;
34896;SDS011;43407;51.828;-2.298;2022-08-19T00:18:31;2.13;;;1.10;;
34896;SDS011;43407;51.828;-2.298;2022-08-19T00:20:57;1.45;;;1.00;;
34896;SDS011;43407;51.828;-2.298;2022-08-19T00:23:22;2.38;;;1.10;;
34896;SDS011;43407;51.828;-2.298;2022-08-19T00:25:48;1.55;;;1.00;;
34896;SDS011;43407;51.828;-2.298;2022-08-19T00:28:13;1.15;;;1.00;;
34896;SDS011;43407;51.828;-2.298;2022-08-19T00:30:39;1.10;;;1.00;;
34896;SDS011;43407;51.828;-2.298;2022-08-19T00:33:06;1.77;;;0.82;;
34896;SDS011;43407;51.828;-2.298;2022-08-19T00:35:33;1.05;;;0.90;;
34896;SDS011;43407;51.828;-2.298;2022-08-19T00:37:58;1.15;;;0.90;;
34896;SDS011;43407;51.828;-2.298;2022-08-19T00:40:24;1.75;;;1.00;;
34896;SDS011;43407;51.828;-2.298;2022-08-19T00:42:50;2.75;;;1.00;;
34896;SDS011;43407;51.828;-2.298;2022-08-19T00:45:21;1.30;;;0.80;;
34896;SDS011;43407;51.828;-2.298;2022-08-19T00:47:47;2.97;;;0.93;;
34896;SDS011;43407;51.828;-2.298;2022-08-19T00:50:14;5.10;;;1.30;;
34896;SDS011;43407;51.828;-2.298;2022-08-19T00:52:42;1.55;;;1.10;;
34896;SDS011;43407;51.828;-2.298;2022-08-19T00:55:21;1.17;;;0.90;;
34896;SDS011;43407;51.828;-2.298;2022-08-19T00:57:53;1.80;;;0.95;;
34896;SDS011;43407;51.828;-2.298;2022-08-19T01:00:22;1.33;;;0.80;;
34896;SDS011;43407;51.828;-2.298;2022-08-19T01:02:48;1.30;;;0.80;;
34896;SDS011;43407;51.828;-2.298;2022-08-19T01:05:16;1.63;;;0.80;;
34896;SDS011;43407;51.828;-2.298;2022-08-19T01:07:44;1.55;;;0.70;;
34896;SDS011;43407;51.828;-2.298;2022-08-19T01:10:12;2.83;;;0.95;;
34896;SDS011;43407;51.828;-2.298;2022-08-19T01:12:41;1.23;;;0.80;;
34896;SDS011;43407;51.828;-2.298;2022-08-19T01:15:07;1.27;;;0.70;;
34896;SDS011;43407;51.828;-2.298;2022-08-19T01:17:35;1.17;;;0.60;;
34896;SDS011;43407;51.828;-2.298;2022-08-19T01:20:02;1.00;;;0.60;;
34896;SDS011;43407;51.828;-2.298;2022-08-19T01:22:36;0.98;;;0.68;;
34896;SDS011;43407;51.828;-2.298;2022-08-19T01:25:12;0.68;;;0.50;;
34896;SDS011;43407;51.828;-2.298;2022-08-19T01:27:40;1.33;;;0.63;;
34896;SDS011;43407;51.828;-2.298;2022-08-19T01:30:09;1.30;;;0.55;;
34896;SDS011;43407;51.828;-2.298;2022-08-19T01:32:47;0.30;;;0.30;;
34896;SDS011;43407;51.828;-2.298;2022-08-19T01:35:13;1.45;;;0.55;;
34896;SDS011;43407;51.828;-2.298;2022-08-19T01:37:59;0.60;;;0.60;;
34896;SDS011;43407;51.828;-2.298;2022-08-19T01:40:27;2.22;;;0.73;;
34896;SDS011;43407;51.828;-2.298;2022-08-19T01:42:54;1.27;;;0.70;;
34896;SDS011;43407;51.828;-2.298;2022-08-19T01:45:21;2.60;;;0.70;;
34896;SDS011;43407;51.828;-2.298;2022-08-19T01:47:48;1.23;;;0.60;;
34896;SDS011;43407;51.828;-2.298;2022-08-19T01:50:14;0.77;;;0.70;;
34896;SDS011;43407;51.828;-2.298;2022-08-19T01:52:40;2.95;;;0.90;;
34896;SDS011;43407;51.828;-2.298;2022-08-19T01:55:08;0.90;;;0.73;;
34896;SDS011;43407;51.828;-2.298;2022-08-19T01:57:35;0.70;;;0.70;;
34896;SDS011;43407;51.828;-2.298;2022-08-19T02:00:02;1.08;;;0.93;;
34896;SDS011;43407;51.828;-2.298;2022-08-19T02:02:32;0.70;;;0.70;;
34896;SDS011;43407;51.828;-2.298;2022-08-19T02:04:57;0.70;;;0.70;;
34896;SDS011;43407;51.828;-2.298;2022-08-19T02:07:24;1.80;;;0.68;;
34896;SDS011;43407;51.828;-2.298;2022-08-19T02:09:49;1.35;;;0.70;;
34896;SDS011;43407;51.828;-2.298;2022-08-19T02:12:15;0.80;;;0.80;;
34896;SDS011;43407;51.828;-2.298;2022-08-19T02:14:41;1.50;;;0.77;;
34896;SDS011;43407;51.828;-2.298;2022-08-19T02:17:07;1.00;;;0.90;;
34896;SDS011;43407;51.828;-2.298;2022-08-19T02:19:32;1.20;;;0.90;;
34896;SDS011;43407;51.828;-2.298;2022-08-19T02:21:58;2.47;;;0.80;;
34896;SDS011;43407;51.828;-2.298;2022-08-19T02:24:24;0.73;;;0.73;;
34896;SDS011;43407;51.828;-2.298;2022-08-19T02:26:50;0.60;;;0.60;;
34896;SDS011;43407;51.828;-2.298;2022-08-19T02:29:16;1.50;;;0.80;;
34896;SDS011;43407;51.828;-2.298;2022-08-19T02:31:41;1.05;;;0.90;;
34896;SDS011;43407;51.828;-2.298;2022-08-19T02:34:07;0.70;;;0.70;;
34896;SDS011;43407;51.828;-2.298;2022-08-19T02:36:32;0.80;;;0.80;;
34896;SDS011;43407;51.828;-2.298;2022-08-19T02:38:58;1.33;;;0.90;;
34896;SDS011;43407;51.828;-2.298;2022-08-19T02:41:28;2.88;;;0.80;;
34896;SDS011;43407;51.828;-2.298;2022-08-19T02:43:56;0.90;;;0.70;;
34896;SDS011;43407;51.828;-2.298;2022-08-19T02:46:27;2.13;;;0.90;;
34896;SDS011;43407;51.828;-2.298;2022-08-19T02:48:55;1.02;;;0.65;;
34896;SDS011;43407;51.828;-2.298;2022-08-19T02:51:24;0.82;;;0.65;;
34896;SDS011;43407;51.828;-2.298;2022-08-19T02:53:51;3.13;;;0.65;;
34896;SDS011;43407;51.828;-2.298;2022-08-19T02:56:17;0.70;;;0.70;;
34896;SDS011;43407;51.828;-2.298;2022-08-19T02:58:43;0.93;;;0.70;;
34896;SDS011;43407;51.828;-2.298;2022-08-19T03:01:09;0.60;;;0.60;;
34896;SDS011;43407;51.828;-2.298;2022-08-19T03:03:36;0.77;;;0.75;;
34896;SDS011;43407;51.828;-2.298;2022-08-19T03:06:03;2.35;;;0.77;;
34896;SDS011;43407;51.828;-2.298;2022-08-19T03:08:29;0.93;;;0.70;;
34896;SDS011;43407;51.828;-2.298;2022-08-19T03:10:55;0.93;;;0.57;;
34896;SDS011;43407;51.828;-2.298;2022-08-19T03:13:20;3.40;;;0.90;;
34896;SDS011;43407;51.828;-2.298;2022-08-19T03:15:46;1.60;;;0.77;;
34896;SDS011;43407;51.828;-2.298;2022-08-19T03:18:13;1.77;;;0.80;;
34896;SDS011;43407;51.828;-2.298;2022-08-19T03:20:43;0.80;;;0.80;;
34896;SDS011;43407;51.828;-2.298;2022-08-19T03:23:09;1.38;;;0.90;;
34896;SDS011;43407;51.828;-2.298;2022-08-19T03:25:36;1.33;;;0.80;;
34896;SDS011;43407;51.828;-2.298;2022-08-19T03:28:03;0.98;;;0.77;;
34896;SDS011;43407;51.828;-2.298;2022-08-19T03:30:29;1.15;;;0.90;;
34896;SDS011;43407;51.828;-2.298;2022-08-19T03:32:54;2.38;;;0.80;;
34896;SDS011;43407;51.828;-2.298;2022-08-19T03:35:20;1.20;;;1.10;;
34896;SDS011;43407;51.828;-2.298;2022-08-19T03:37:45;1.15;;;1.00;;
34896;SDS011;43407;51.828;-2.298;2022-08-19T03:40:11;1.38;;;1.10;;
34896;SDS011;43407;51.828;-2.298;2022-08-19T03:42:36;1.02;;;0.93;;
34896;SDS011;43407;51.828;-2.298;2022-08-19T03:45:02;0.90;;;0.90;;
34896;SDS011;43407;51.828;-2.298;2022-08-19T03:47:28;1.10;;;0.90;;
34896;SDS011;43407;51.828;-2.298;2022-08-19T03:49:53;1.17;;;1.08;;
34896;SDS011;43407;51.828;-2.298;2022-08-19T03:52:19;1.40;;;1.10;;
34896;SDS011;43407;51.828;-2.298;2022-08-19T03:54:45;1.27;;;1.17;;
34896;SDS011;43407;51.828;-2.298;2022-08-19T03:57:10;0.90;;;0.90;;
34896;SDS011;43407;51.828;-2.298;2022-08-19T03:59:36;0.90;;;0.90;;
34896;SDS011;43407;51.828;-2.298;2022-08-19T04:02:09;1.17;;;0.77;;
34896;SDS011;43407;51.828;-2.298;2022-08-19T04:04:37;2.33;;;1.02;;
34896;SDS011;43407;51.828;-2.298;2022-08-19T04:07:04;1.20;;;1.10;;
34896;SDS011;43407;51.828;-2.298;2022-08-19T04:09:30;0.80;;;0.80;;
34896;SDS011;43407;51.828;-2.298;2022-08-19T04:11:56;1.45;;;0.90;;
34896;SDS011;43407;51.828;-2.298;2022-08-19T04:14:23;1.10;;;1.00;;
34896;SDS011;43407;51.828;-2.298;2022-08-19T04:16:51;1.27;;;0.77;;
34896;SDS011;43407;51.828;-2.298;2022-08-19T04:19:19;0.95;;;0.90;;
34896;SDS011;43407;51.828;-2.298;2022-08-19T04:21:46;2.20;;;0.98;;
34896;SDS011;43407;51.828;-2.298;2022-08-19T04:24:14;1.95;;;0.80;;
34896;SDS011;43407;51.828;-2.298;2022-08-19T04:26:40;1.05;;;0.93;;
34896;SDS011;43407;51.828;-2.298;2022-08-19T04:29:24;3.20;;;1.08;;
34896;SDS011;43407;51.828;-2.298;2022-08-19T04:31:52;1.92;;;1.02;;
34896;SDS011;43407;51.828;-2.298;2022-08-19T04:34:19;1.25;;;1.05;;
34896;SDS011;43407;51.828;-2.298;2022-08-19T04:36:49;2.13;;;1.10;;
34896;SDS011;43407;51.828;-2.298;2022-08-19T04:39:19;2.40;;;1.10;;
34896;SDS011;43407;51.828;-2.298;2022-08-19T04:42:09;2.15;;;1.10;;
34896;SDS011;43407;51.828;-2.298;2022-08-19T04:44:53;1.08;;;0.90;;
34896;SDS011;43407;51.828;-2.298;2022-08-19T04:47:18;1.20;;;1.10;;
34896;SDS011;43407;51.828;-2.298;2022-08-19T04:49:44;2.13;;;1.27;;
34896;SDS011;43407;51.828;-2.298;2022-08-19T04:52:09;3.03;;;1.30;;
34896;SDS011;43407;51.828;-2.298;2022-08-19T04:54:35;2.45;;;1.20;;
34896;SDS011;43407;51.828;-2.298;2022-08-19T04:57:00;2.85;;;1.52;;
34896;SDS011;43407;51.828;-2.298;2022-08-19T04:59:26;3.28;;;1.27;;
34896;SDS011;43407;51.828;-2.298;2022-08-19T05:01:51;1.98;;;1.08;;
34896;SDS011;43407;51.828;-2.298;2022-08-19T05:04:18;3.97;;;1.10;;
34896;SDS011;43407;51.828;-2.298;2022-08-19T05:06:45;1.77;;;1.08;;
34896;SDS011;43407;51.828;-2.298;2022-08-19T05:09:12;3.25;;;1.40;;
34896;SDS011;43407;51.828;-2.298;2022-08-19T05:11:37;2.63;;;1.30;;
34896;SDS011;43407;51.828;-2.298;2022-08-19T05:14:04;4.05;;;1.38;;
34896;SDS011;43407;51.828;-2.298;2022-08-19T05:16:33;5.85;;;1.40;;
34896;SDS011;43407;51.828;-2.298;2022-08-19T05:18:58;2.88;;;1.80;;
34896;SDS011;43407;51.828;-2.298;2022-08-19T05:21:43;3.65;;;1.30;;
34896;SDS011;43407;51.828;-2.298;2022-08-19T05:24:27;3.65;;;1.30;;
34896;SDS011;43407;51.828;-2.298;2022-08-19T05:26:54;2.33;;;1.38;;
34896;SDS011;43407;51.828;-2.298;2022-08-19T05:29:22;4.82;;;1.17;;
34896;SDS011;43407;51.828;-2.298;2022-08-19T05:31:48;3.75;;;1.38;;
34896;SDS011;43407;51.828;-2.298;2022-08-19T05:34:14;2.97;;;1.30;;
34896;SDS011;43407;51.828;-2.298;2022-08-19T05:36:46;4.15;;;1.30;;
34896;SDS011;43407;51.828;-2.298;2022-08-19T05:39:17;2.75;;;1.40;;
34896;SDS011;43407;51.828;-2.298;2022-08-19T05:41:52;3.40;;;1.20;;
34896;SDS011;43407;51.828;-2.298;2022-08-19T05:44:19;2.65;;;1.20;;
34896;SDS011;43407;51.828;-2.298;2022-08-19T05:46:46;2.85;;;1.30;;
34896;SDS011;43407;51.828;-2.298;2022-08-19T05:49:12;3.83;;;1.58;;
34896;SDS011;43407;51.828;-2.298;2022-08-19T05:51:38;5.18;;;1.50;;
34896;SDS011;43407;51.828;-2.298;2022-08-19T05:54:04;4.78;;;1.58;;
34896;SDS011;43407;51.828;-2.298;2022-08-19T05:56:32;3.30;;;1.30;;
34896;SDS011;43407;51.828;-2.298;2022-08-19T05:59:01;3.97;;;1.40;;
34896;SDS011;43407;51.828;-2.298;2022-08-19T06:01:27;3.72;;;1.40;;
34896;SDS011;43407;51.828;-2.298;2022-08-19T06:03:53;7.60;;;1.90;;
34896;SDS011;43407;51.828;-2.298;2022-08-19T06:06:19;4.70;;;1.60;;
34896;SDS011;43407;51.828;-2.298;2022-08-19T06:08:44;5.43;;;1.50;;
34896;SDS011;43407;51.828;-2.298;2022-08-19T06:13:42;4.43;;;1.58;;
34896;SDS011;43407;51.828;-2.298;2022-08-19T06:16:08;5.07;;;1.52;;
34896;SDS011;43407;51.828;-2.298;2022-08-19T06:18:34;5.82;;;1.40;;
34896;SDS011;43407;51.828;-2.298;2022-08-19T06:20:59;3.35;;;1.50;;
34896;SDS011;43407;51.828;-2.298;2022-08-19T06:23:28;5.20;;;1.67;;
34896;SDS011;43407;51.828;-2.298;2022-08-19T06:25:54;5.68;;;2.00;;
34896;SDS011;43407;51.828;-2.298;2022-08-19T06:28:19;4.07;;;1.20;;
34896;SDS011;43407;51.828;-2.298;2022-08-19T06:30:45;3.20;;;1.27;;
34896;SDS011;43407;51.828;-2.298;2022-08-19T06:33:11;6.18;;;1.83;;
34896;SDS011;43407;51.828;-2.298;2022-08-19T06:35:40;5.18;;;1.50;;
34896;SDS011;43407;51.828;-2.298;2022-08-19T06:38:06;6.30;;;1.38;;
34896;SDS011;43407;51.828;-2.298;2022-08-19T06:40:32;7.20;;;1.80;;
34896;SDS011;43407;51.828;-2.298;2022-08-19T06:42:57;5.57;;;1.85;;
34896;SDS011;43407;51.828;-2.298;2022-08-19T06:45:25;6.35;;;1.77;;
34896;SDS011;43407;51.828;-2.298;2022-08-19T06:47:51;7.72;;;2.65;;
34896;SDS011;43407;51.828;-2.298;2022-08-19T06:50:21;7.03;;;1.88;;
34896;SDS011;43407;51.828;-2.298;2022-08-19T06:52:47;8.68;;;2.30;;
34896;SDS011;43407;51.828;-2.298;2022-08-19T06:55:14;6.22;;;1.70;;
34896;SDS011;43407;51.828;-2.298;2022-08-19T06:57:40;4.57;;;1.63;;
34896;SDS011;43407;51.828;-2.298;2022-08-19T07:00:07;4.65;;;1.50;;
34896;SDS011;43407;51.828;-2.298;2022-08-19T07:02:42;3.92;;;1.30;;
34896;SDS011;43407;51.828;-2.298;2022-08-19T07:05:08;8.35;;;1.58;;
34896;SDS011;43407;51.828;-2.298;2022-08-19T07:07:34;5.68;;;1.92;;
34896;SDS011;43407;51.828;-2.298;2022-08-19T07:09:59;4.65;;;1.48;;
34896;SDS011;43407;51.828;-2.298;2022-08-19T07:12:25;7.28;;;2.03;;
34896;SDS011;43407;51.828;-2.298;2022-08-19T07:14:52;6.82;;;1.60;;
34896;SDS011;43407;51.828;-2.298;2022-08-19T07:17:18;5.05;;;1.90;;
34896;SDS011;43407;51.828;-2.298;2022-08-19T07:19:45;7.28;;;1.73;;
34896;SDS011;43407;51.828;-2.298;2022-08-19T07:22:10;7.65;;;2.05;;
34896;SDS011;43407;51.828;-2.298;2022-08-19T07:24:36;8.55;;;2.50;;
34896;SDS011;43407;51.828;-2.298;2022-08-19T07:27:03;7.68;;;2.10;;
34896;SDS011;43407;51.828;-2.298;2022-08-19T07:29:31;7.30;;;2.00;;
34896;SDS011;43407;51.828;-2.298;2022-08-19T07:31:58;8.20;;;2.28;;
34896;SDS011;43407;51.828;-2.298;2022-08-19T07:34:25;7.68;;;2.00;;
34896;SDS011;43407;51.828;-2.298;2022-08-19T07:36:51;7.00;;;2.33;;
34896;SDS011;43407;51.828;-2.298;2022-08-19T07:39:19;5.88;;;1.95;;
34896;SDS011;43407;51.828;-2.298;2022-08-19T07:41:47;11.73;;;2.53;;
34896;SDS011;43407;51.828;-2.298;2022-08-19T07:44:14;6.75;;;2.15;;
34896;SDS011;43407;51.828;-2.298;2022-08-19T07:46:41;6.57;;;1.90;;
34896;SDS011;43407;51.828;-2.298;2022-08-19T07:49:09;9.05;;;2.28;;
34896;SDS011;43407;51.828;-2.298;2022-08-19T07:51:44;5.80;;;2.10;;
34896;SDS011;43407;51.828;-2.298;2022-08-19T07:54:14;8.43;;;2.22;;
34896;SDS011;43407;51.828;-2.298;2022-08-19T07:56:40;6.55;;;1.98;;
34896;SDS011;43407;51.828;-2.298;2022-08-19T07:59:05;7.22;;;2.08;;
34896;SDS011;43407;51.828;-2.298;2022-08-19T08:01:32;9.35;;;2.47;;
34896;SDS011;43407;51.828;-2.298;2022-08-19T08:03:58;7.03;;;2.03;;
34896;SDS011;43407;51.828;-2.298;2022-08-19T08:06:42;7.22;;;2.38;;
34896;SDS011;43407;51.828;-2.298;2022-08-19T08:09:47;6.95;;;2.10;;
34896;SDS011;43407;51.828;-2.298;2022-08-19T08:12:36;8.77;;;2.30;;
34896;SDS011;43407;51.828;-2.298;2022-08-19T08:15:04;7.53;;;2.47;;
34896;SDS011;43407;51.828;-2.298;2022-08-19T08:17:34;6.10;;;2.20;;
34896;SDS011;43407;51.828;-2.298;2022-08-19T08:20:03;5.82;;;2.13;;
34896;SDS011;43407;51.828;-2.298;2022-08-19T08:22:32;6.45;;;2.22;;
34896;SDS011;43407;51.828;-2.298;2022-08-19T08:25:17;8.25;;;2.08;;
34896;SDS011;43407;51.828;-2.298;2022-08-19T08:27:45;5.50;;;1.70;;
34896;SDS011;43407;51.828;-2.298;2022-08-19T08:30:19;6.82;;;2.10;;
34896;SDS011;43407;51.828;-2.298;2022-08-19T08:32:47;9.43;;;2.50;;
34896;SDS011;43407;51.828;-2.298;2022-08-19T08:35:15;7.80;;;2.30;;
34896;SDS011;43407;51.828;-2.298;2022-08-19T08:37:42;4.53;;;1.67;;
34896;SDS011;43407;51.828;-2.298;2022-08-19T08:40:52;6.22;;;1.80;;
34896;SDS011;43407;51.828;-2.298;2022-08-19T08:43:06;9.82;;;2.13;;
34896;SDS011;43407;51.828;-2.298;2022-08-19T08:45:43;6.53;;;2.00;;
34896;SDS011;43407;51.828;-2.298;2022-08-19T08:48:20;7.25;;;2.30;;
34896;SDS011;43407;51.828;-2.298;2022-08-19T08:50:48;7.40;;;2.20;;
34896;SDS011;43407;51.828;-2.298;2022-08-19T08:53:18;9.05;;;2.08;;
34896;SDS011;43407;51.828;-2.298;2022-08-19T08:55:44;4.97;;;1.70;;
34896;SDS011;43407;51.828;-2.298;2022-08-19T08:58:20;9.07;;;2.03;;
34896;SDS011;43407;51.828;-2.298;2022-08-19T09:00:58;8.25;;;2.20;;
34896;SDS011;43407;51.828;-2.298;2022-08-19T09:03:25;5.95;;;1.95;;
34896;SDS011;43407;51.828;-2.298;2022-08-19T09:06:00;7.25;;;2.45;;
34896;SDS011;43407;51.828;-2.298;2022-08-19T09:11:37;7.25;;;2.00;;
34896;SDS011;43407;51.828;-2.298;2022-08-19T09:16:45;4.93;;;1.90;;
34896;SDS011;43407;51.828;-2.298;2022-08-19T09:19:13;7.28;;;1.50;;
34896;SDS011;43407;51.828;-2.298;2022-08-19T09:21:41;6.28;;;1.98;;
34896;SDS011;43407;51.828;-2.298;2022-08-19T09:24:06;5.53;;;1.48;;
34896;SDS011;43407;51.828;-2.298;2022-08-19T09:26:32;5.43;;;1.58;;
34896;SDS011;43407;51.828;-2.298;2022-08-19T09:28:58;5.50;;;1.50;;
34896;SDS011;43407;51.828;-2.298;2022-08-19T09:31:28;4.93;;;1.60;;
34896;SDS011;43407;51.828;-2.298;2022-08-19T09:33:54;4.43;;;1.40;;
34896;SDS011;43407;51.828;-2.298;2022-08-19T09:36:22;5.82;;;1.88;;
34896;SDS011;43407;51.828;-2.298;2022-08-19T09:38:50;7.13;;;1.58;;
34896;SDS011;43407;51.828;-2.298;2022-08-19T09:41:20;7.82;;;1.75;;
34896;SDS011;43407;51.828;-2.298;2022-08-19T09:43:50;5.13;;;1.67;;
34896;SDS011;43407;51.828;-2.298;2022-08-19T09:46:18;3.97;;;1.52;;
34896;SDS011;43407;51.828;-2.298;2022-08-19T09:48:46;5.60;;;1.88;;
34896;SDS011;43407;51.828;-2.298;2022-08-19T09:51:15;6.60;;;2.08;;
34896;SDS011;43407;51.828;-2.298;2022-08-19T09:53:43;5.10;;;1.73;;
34896;SDS011;43407;51.828;-2.298;2022-08-19T09:56:09;6.13;;;1.90;;
34896;SDS011;43407;51.828;-2.298;2022-08-19T09:58:35;5.40;;;1.60;;
34896;SDS011;43407;51.828;-2.298;2022-08-19T10:01:01;5.95;;;2.00;;
34896;SDS011;43407;51.828;-2.298;2022-08-19T10:03:28;8.00;;;2.08;;
34896;SDS011;43407;51.828;-2.298;2022-08-19T10:05:54;3.80;;;1.70;;
34896;SDS011;43407;51.828;-2.298;2022-08-19T10:08:24;6.20;;;1.98;;
34896;SDS011;43407;51.828;-2.298;2022-08-19T10:10:55;6.35;;;2.10;;
34896;SDS011;43407;51.828;-2.298;2022-08-19T10:13:23;5.40;;;1.75;;
34896;SDS011;43407;51.828;-2.298;2022-08-19T10:15:54;6.20;;;1.73;;
34896;SDS011;43407;51.828;-2.298;2022-08-19T10:18:22;4.32;;;1.63;;
34896;SDS011;43407;51.828;-2.298;2022-08-19T10:20:50;6.20;;;1.70;;
34896;SDS011;43407;51.828;-2.298;2022-08-19T10:23:19;4.95;;;1.60;;
34896;SDS011;43407;51.828;-2.298;2022-08-19T10:25:46;5.50;;;1.90;;
34896;SDS011;43407;51.828;-2.298;2022-08-19T10:28:12;5.43;;;2.22;;
34896;SDS011;43407;51.828;-2.298;2022-08-19T10:30:38;6.13;;;1.70;;
34896;SDS011;43407;51.828;-2.298;2022-08-19T10:33:04;4.45;;;1.52;;
34896;SDS011;43407;51.828;-2.298;2022-08-19T10:35:32;4.15;;;1.48;;
34896;SDS011;43407;51.828;-2.298;2022-08-19T10:37:58;5.32;;;2.03;;
34896;SDS011;43407;51.828;-2.298;2022-08-19T10:40:25;6.28;;;1.92;;
34896;SDS011;43407;51.828;-2.298;2022-08-19T10:42:52;7.45;;;2.20;;
34896;SDS011;43407;51.828;-2.298;2022-08-19T10:45:18;5.28;;;1.70;;
34896;SDS011;43407;51.828;-2.298;2022-08-19T10:47:43;8.10;;;1.90;;
34896;SDS011;43407;51.828;-2.298;2022-08-19T10:50:09;5.97;;;2.08;;
34896;SDS011;43407;51.828;-2.298;2022-08-19T10:52:53;5.40;;;1.85;;
34896;SDS011;43407;51.828;-2.298;2022-08-19T10:55:20;9.10;;;2.17;;
34896;SDS011;43407;51.828;-2.298;2022-08-19T10:58:12;5.97;;;1.60;;
34896;SDS011;43407;51.828;-2.298;2022-08-19T11:01:05;3.40;;;1.60;;
34896;SDS011;43407;51.828;-2.298;2022-08-19T11:03:30;5.07;;;1.80;;
34896;SDS011;43407;51.828;-2.298;2022-08-19T11:05:57;7.43;;;1.90;;
34896;SDS011;43407;51.828;-2.298;2022-08-19T11:08:26;4.68;;;1.73;;
34896;SDS011;43407;51.828;-2.298;2022-08-19T11:10:52;3.53;;;1.60;;
34896;SDS011;43407;51.828;-2.298;2022-08-19T11:13:21;6.00;;;1.80;;
34896;SDS011;43407;51.828;-2.298;2022-08-19T11:15:55;7.00;;;1.60;;
34896;SDS011;43407;51.828;-2.298;2022-08-19T11:18:25;5.57;;;1.70;;
34896;SDS011;43407;51.828;-2.298;2022-08-19T11:20:51;4.43;;;1.85;;
34896;SDS011;43407;51.828;-2.298;2022-08-19T11:23:17;5.00;;;1.55;;
34896;SDS011;43407;51.828;-2.298;2022-08-19T11:25:42;5.80;;;1.70;;
34896;SDS011;43407;51.828;-2.298;2022-08-19T11:28:07;4.68;;;1.60;;
34896;SDS011;43407;51.828;-2.298;2022-08-19T11:30:33;3.30;;;1.40;;
34896;SDS011;43407;51.828;-2.298;2022-08-19T11:32:59;4.40;;;1.30;;
34896;SDS011;43407;51.828;-2.298;2022-08-19T11:35:25;3.53;;;1.45;;
34896;SDS011;43407;51.828;-2.298;2022-08-19T11:37:51;2.70;;;1.30;;
34896;SDS011;43407;51.828;-2.298;2022-08-19T11:40:16;5.18;;;1.80;;
34896;SDS011;43407;51.828;-2.298;2022-08-19T11:42:42;3.70;;;1.70;;
34896;SDS011;43407;51.828;-2.298;2022-08-19T11:45:21;5.35;;;1.42;;
34896;SDS011;43407;51.828;-2.298;2022-08-19T11:47:50;5.68;;;1.58;;
34896;SDS011;43407;51.828;-2.298;2022-08-19T11:50:16;5.60;;;1.73;;
34896;SDS011;43407;51.828;-2.298;2022-08-19T11:52:42;4.68;;;1.67;;
34896;SDS011;43407;51.828;-2.298;2022-08-19T11:55:09;2.90;;;1.35;;
34896;SDS011;43407;51.828;-2.298;2022-08-19T11:57:34;7.47;;;1.90;;
34896;SDS011;43407;51.828;-2.298;2022-08-19T12:00:02;4.03;;;1.50;;
34896;SDS011;43407;51.828;-2.298;2022-08-19T12:02:30;4.38;;;1.38;;
34896;SDS011;43407;51.828;-2.298;2022-08-19T12:04:55;4.45;;;1.70;;
34896;SDS011;43407;51.828;-2.298;2022-08-19T12:07:21;3.47;;;1.48;;
34896;SDS011;43407;51.828;-2.298;2022-08-19T12:09:46;5.05;;;1.77;;
34896;SDS011;43407;51.828;-2.298;2022-08-19T12:12:12;5.22;;;1.70;;
34896;SDS011;43407;51.828;-2.298;2022-08-19T12:14:38;5.55;;;1.77;;
34896;SDS011;43407;51.828;-2.298;2022-08-19T12:17:04;3.00;;;1.30;;
34896;SDS011;43407;51.828;-2.298;2022-08-19T12:19:31;5.45;;;1.27;;
34896;SDS011;43407;51.828;-2.298;2022-08-19T12:22:00;3.08;;;1.08;;
34896;SDS011;43407;51.828;-2.298;2022-08-19T12:24:29;5.82;;;1.20;;
34896;SDS011;43407;51.828;-2.298;2022-08-19T12:26:56;2.80;;;1.30;;
34896;SDS011;43407;51.828;-2.298;2022-08-19T12:29:23;2.70;;;1.02;;
34896;SDS011;43407;51.828;-2.298;2022-08-19T12:31:53;2.38;;;1.17;;
34896;SDS011;43407;51.828;-2.298;2022-08-19T12:34:19;3.45;;;1.00;;
34896;SDS011;43407;51.828;-2.298;2022-08-19T12:36:45;3.03;;;1.20;;
34896;SDS011;43407;51.828;-2.298;2022-08-19T12:39:10;2.35;;;1.00;;
34896;SDS011;43407;51.828;-2.298;2022-08-19T12:41:36;2.92;;;1.00;;
34896;SDS011;43407;51.828;-2.298;2022-08-19T12:44:02;4.50;;;1.17;;
34896;SDS011;43407;51.828;-2.298;2022-08-19T12:46:28;2.90;;;1.13;;
34896;SDS011;43407;51.828;-2.298;2022-08-19T12:48:53;2.50;;;0.90;;
34896;SDS011;43407;51.828;-2.298;2022-08-19T12:51:19;3.22;;;1.20;;
34896;SDS011;43407;51.828;-2.298;2022-08-19T12:53:45;3.10;;;1.00;;
34896;SDS011;43407;51.828;-2.298;2022-08-19T12:56:11;2.20;;;1.02;;
34896;SDS011;43407;51.828;-2.298;2022-08-19T12:58:39;2.53;;;0.90;;
34896;SDS011;43407;51.828;-2.298;2022-08-19T13:01:07;3.28;;;1.23;;
34896;SDS011;43407;51.828;-2.298;2022-08-19T13:03:35;2.67;;;1.02;;
34896;SDS011;43407;51.828;-2.298;2022-08-19T13:06:01;2.45;;;1.00;;
34896;SDS011;43407;51.828;-2.298;2022-08-19T13:08:27;2.95;;;1.10;;
34896;SDS011;43407;51.828;-2.298;2022-08-19T13:10:53;3.15;;;1.20;;
34896;SDS011;43407;51.828;-2.298;2022-08-19T13:13:18;2.03;;;0.98;;
34896;SDS011;43407;51.828;-2.298;2022-08-19T13:15:44;2.35;;;1.00;;
34896;SDS011;43407;51.828;-2.298;2022-08-19T13:18:11;2.17;;;0.90;;
34896;SDS011;43407;51.828;-2.298;2022-08-19T13:20:37;3.72;;;1.42;;
34896;SDS011;43407;51.828;-2.298;2022-08-19T13:23:05;3.70;;;1.35;;
34896;SDS011;43407;51.828;-2.298;2022-08-19T13:25:31;3.63;;;1.55;;
34896;SDS011;43407;51.828;-2.298;2022-08-19T13:27:57;4.13;;;1.35;;
34896;SDS011;43407;51.828;-2.298;2022-08-19T13:30:24;4.78;;;1.40;;
34896;SDS011;43407;51.828;-2.298;2022-08-19T13:33:09;3.47;;;1.42;;
34896;SDS011;43407;51.828;-2.298;2022-08-19T13:35:42;5.00;;;1.35;;
34896;SDS011;43407;51.828;-2.298;2022-08-19T13:38:25;3.35;;;1.40;;
34896;SDS011;43407;51.828;-2.298;2022-08-19T13:40:51;3.97;;;1.30;;
34896;SDS011;43407;51.828;-2.298;2022-08-19T13:43:18;3.65;;;1.25;;
34896;SDS011;43407;51.828;-2.298;2022-08-19T13:45:47;4.15;;;1.48;;
34896;SDS011;43407;51.828;-2.298;2022-08-19T13:48:13;3.47;;;1.50;;
34896;SDS011;43407;51.828;-2.298;2022-08-19T13:50:40;3.33;;;1.40;;
34896;SDS011;43407;51.828;-2.298;2022-08-19T13:53:10;5.25;;;1.52;;
34896;SDS011;43407;51.828;-2.298;2022-08-19T13:55:40;3.65;;;1.35;;
34896;SDS011;43407;51.828;-2.298;2022-08-19T13:58:06;3.58;;;1.10;;
34896;SDS011;43407;51.828;-2.298;2022-08-19T14:00:33;5.20;;;1.48;;
34896;SDS011;43407;51.828;-2.298;2022-08-19T14:03:01;4.90;;;1.42;;
34896;SDS011;43407;51.828;-2.298;2022-08-19T14:05:28;6.07;;;1.58;;
34896;SDS011;43407;51.828;-2.298;2022-08-19T14:07:54;5.65;;;1.52;;
34896;SDS011;43407;51.828;-2.298;2022-08-19T14:10:20;5.28;;;1.65;;
34896;SDS011;43407;51.828;-2.298;2022-08-19T14:12:48;7.30;;;1.70;;
34896;SDS011;43407;51.828;-2.298;2022-08-19T14:15:14;7.43;;;1.58;;
34896;SDS011;43407;51.828;-2.298;2022-08-19T14:17:41;3.72;;;1.42;;
34896;SDS011;43407;51.828;-2.298;2022-08-19T14:20:08;4.22;;;1.50;;
34896;SDS011;43407;51.828;-2.298;2022-08-19T14:22:35;3.85;;;1.45;;
34896;SDS011;43407;51.828;-2.298;2022-08-19T14:25:03;3.65;;;1.20;;
34896;SDS011;43407;51.828;-2.298;2022-08-19T14:27:30;3.47;;;1.23;;
34896;SDS011;43407;51.828;-2.298;2022-08-19T14:29:57;3.17;;;1.35;;
34896;SDS011;43407;51.828;-2.298;2022-08-19T14:32:23;3.67;;;1.60;;
34896;SDS011;43407;51.828;-2.298;2022-08-19T14:34:51;3.92;;;1.38;;
34896;SDS011;43407;51.828;-2.298;2022-08-19T14:37:17;6.07;;;1.80;;
34896;SDS011;43407;51.828;-2.298;2022-08-19T14:39:42;5.68;;;2.10;;
34896;SDS011;43407;51.828;-2.298;2022-08-19T14:42:10;4.13;;;2.03;;
34896;SDS011;43407;51.828;-2.298;2022-08-19T14:44:36;5.18;;;1.75;;
34896;SDS011;43407;51.828;-2.298;2022-08-19T14:47:02;3.33;;;1.50;;